createdAt,value
2022-10-14T00:01:37.692Z,67.18
2022-10-14T00:11:40.487Z,53.78
2022-10-14T00:21:46.702Z,57.70
2022-10-14T00:31:51.648Z,61.13
2022-10-14T00:41:55.646Z,58.33
2022-10-14T00:52:03.126Z,46.50
2022-10-14T01:02:07.586Z,54.85
2022-10-14T01:12:28.665Z,57.67
2022-10-14T01:22:37.986Z,56.65
2022-10-14T01:32:52.842Z,54.67
2022-10-14T01:42:57.380Z,63.88
2022-10-14T01:53:06.086Z,63.88
2022-10-14T02:03:08.805Z,67.00
2022-10-14T02:13:27.190Z,68.72
2022-10-14T02:23:37.424Z,75.45
2022-10-14T02:43:46.159Z,67.00
2022-10-14T02:53:50.086Z,64.88
2022-10-14T03:03:52.690Z,70.35
2022-10-14T03:13:56.655Z,70.53
2022-10-14T03:23:59.242Z,88.38
2022-10-14T03:34:03.532Z,143.63
2022-10-14T03:44:06.350Z,135.70
2022-10-14T03:54:10.491Z,226.90
2022-10-14T04:04:13.083Z,314.17
2022-10-14T04:14:17.062Z,128.85
2022-10-14T04:24:19.697Z,225.55
2022-10-14T04:34:23.654Z,139.10
2022-10-14T04:44:26.271Z,139.48
2022-10-14T04:54:30.739Z,130.48
2022-10-14T05:04:33.379Z,150.90
2022-10-14T05:14:37.346Z,67.65
2022-10-14T05:24:39.969Z,67.68
2022-10-14T05:34:43.917Z,53.88
2022-10-14T05:44:46.998Z,44.70
2022-10-14T05:54:51.010Z,35.47
2022-10-14T06:04:54.128Z,62.17
2022-10-14T06:14:58.108Z,29.38
2022-10-14T06:25:04.264Z,30.52
2022-10-14T06:35:09.739Z,34.40
2022-10-14T06:45:12.320Z,40.92
2022-10-14T06:55:17.526Z,35.83
2022-10-14T07:05:20.171Z,37.42
2022-10-14T07:15:24.359Z,39.40
2022-10-14T07:25:27.000Z,47.28
2022-10-14T07:35:30.957Z,31.80
2022-10-14T07:45:35.828Z,41.13
2022-10-14T07:55:52.104Z,39.25
2022-10-14T08:06:00.251Z,36.60
2022-10-14T08:16:04.494Z,36.10
2022-10-14T08:26:19.576Z,35.38
2022-10-14T08:36:23.944Z,32.90
2022-10-14T08:46:34.302Z,29.38
2022-10-14T08:56:38.759Z,34.78
2022-10-14T09:06:43.864Z,31.50
2022-10-14T09:16:51.945Z,32.42
2022-10-14T09:26:59.381Z,34.28
2022-10-14T09:37:16.608Z,33.10
2022-10-14T09:47:19.495Z,29.95
2022-10-14T09:57:25.760Z,27.10
2022-10-14T10:07:32.045Z,30.38
2022-10-14T10:17:40.499Z,35.03
2022-10-14T10:27:45.618Z,28.58
2022-10-14T10:38:06.589Z,28.17
2022-10-14T10:48:16.501Z,29.92
2022-10-14T11:09:02.451Z,32.58
2022-10-14T11:19:13.903Z,31.55
2022-10-14T11:29:57.783Z,38.00
2022-10-14T11:40:07.914Z,38.28
2022-10-14T11:50:17.956Z,37.83
2022-10-14T12:00:41.896Z,45.72
2022-10-14T12:10:48.691Z,39.55
2022-10-14T12:20:58.712Z,45.33
2022-10-14T12:41:43.526Z,51.67
2022-10-14T12:51:54.592Z,51.00
2022-10-14T13:02:04.308Z,55.13
2022-10-14T13:12:40.874Z,64.53
2022-10-14T13:22:45.402Z,68.75
2022-10-14T13:32:53.298Z,68.40
2022-10-14T13:42:58.867Z,69.05
2022-10-14T13:53:04.586Z,65.35
2022-10-14T14:03:18.476Z,62.47
2022-10-14T14:13:21.624Z,58.75
2022-10-14T14:23:26.114Z,58.20
2022-10-14T14:33:31.487Z,52.35
2022-10-14T14:43:40.854Z,48.33
2022-10-14T14:53:50.957Z,40.05
2022-10-14T15:04:13.039Z,36.80
2022-10-14T15:14:30.752Z,29.70
2022-10-14T15:24:34.715Z,30.55
2022-10-14T15:34:37.440Z,32.60
2022-10-14T15:44:41.379Z,30.08
2022-10-14T15:54:45.786Z,31.88
2022-10-14T16:05:15.016Z,32.08
2022-10-14T16:15:34.659Z,25.63
2022-10-14T16:25:39.896Z,27.95
2022-10-14T16:35:43.744Z,28.33
2022-10-14T16:45:47.683Z,25.83
2022-10-14T16:55:50.338Z,23.10
2022-10-14T17:05:59.494Z,25.48
2022-10-14T17:16:02.390Z,27.37
2022-10-14T17:26:06.964Z,27.15
2022-10-14T17:36:17.687Z,26.85
2022-10-14T17:46:24.707Z,29.77
2022-10-14T17:56:29.151Z,28.52
2022-10-14T18:06:35.604Z,23.65
2022-10-14T18:16:39.819Z,28.52
2022-10-14T18:26:43.764Z,30.55
2022-10-14T18:36:47.790Z,29.83
2022-10-14T18:46:51.787Z,29.25
2022-10-14T18:56:54.758Z,25.90
2022-10-14T19:06:58.697Z,26.38
2022-10-14T19:17:01.361Z,23.05
2022-10-14T19:27:05.639Z,23.25
2022-10-14T19:37:08.213Z,23.98
2022-10-14T19:47:12.616Z,23.00
2022-10-14T19:57:15.184Z,25.58
2022-10-14T20:07:19.215Z,26.27
2022-10-14T20:17:21.886Z,31.85
2022-10-14T20:27:26.184Z,32.78
2022-10-14T20:37:31.514Z,36.67
2022-10-14T20:47:35.756Z,34.70
2022-10-14T20:57:38.675Z,36.25
2022-10-14T21:07:42.631Z,38.47
2022-10-14T21:17:48.763Z,40.08
2022-10-14T21:27:52.766Z,36.42
2022-10-14T21:37:55.400Z,38.47
2022-10-14T21:58:07.032Z,38.00
2022-10-14T22:08:11.183Z,36.33
2022-10-14T22:18:13.751Z,31.70
2022-10-14T22:28:17.785Z,38.13
2022-10-14T22:38:20.396Z,36.90
2022-10-14T22:48:24.439Z,44.10
2022-10-14T22:58:27.373Z,33.05
2022-10-14T23:08:31.979Z,41.13
2022-10-14T23:18:36.155Z,43.45
2022-10-14T23:28:40.924Z,44.45
2022-10-14T23:38:44.515Z,45.90
2022-10-14T23:48:55.843Z,44.35
2022-10-14T23:59:11.540Z,45.00
